Northern Highway — 3EVE6 — position and weather

sailwx.info

Track history (hours):
 
Tides and Currents Weather Stations Pressure Air Temp Water Temp Dewpoint Dewpoint Depression Visibility Wind Speed Wind Dir Waves Ship Positions

Northern Highway

Last reported at 2014-Aug-16 13:19 UTC. Time now 2014-Aug-21 00:24 UTC.
Position N 35°28' E 141°01'.

Length 188 m; draft 8 m.

Type: Cargo ship. MMSI: 371608000.

Date/timePositionNaut miles runAvg speedWind from/ knotsBaromVisibWave heightAir tempDewpointWater temp
2014-Aug-16 13:19N 35°28' E 141°01'4817.5
2014-Aug-16 10:33N 34°58' E 140°14'1615.9
2014-Aug-16 09:33N 34°51' E 139°57'1413.8
2014-Aug-16 08:33N 34°58' E 139°42'1414.6
2014-Aug-16 07:34N 35°12' E 139°45'1110.9
2014-Aug-16 06:34N 35°22' E 139°42'5 4.8
2014-Aug-16 05:31N 35°27' E 139°41'0 0.0
2014-Aug-16 04:31N 35°27' E 139°41'0 0.0
2014-Aug-16 03:31N 35°27' E 139°41'0 0.0
2014-Aug-16 02:28N 35°27' E 139°41'0 0.0
2014-Aug-16 01:31N 35°27' E 139°41'0 0.0
2014-Aug-16 00:31N 35°27' E 139°41'0 0.0
2014-Aug-15 23:31N 35°27' E 139°41'0 0.0
2014-Aug-15 22:31N 35°27' E 139°41'0 0.2
2014-Aug-15 21:33N 35°27' E 139°41'10 9.8
2014-Aug-15 20:33N 35°18' E 139°45'1111.2
2014-Aug-15 19:33N 35°07' E 139°46'1616.1
2014-Aug-15 18:33N 34°56' E 139°31'  
2014-Aug-12 10:21N 34°30' E 134°31'1416.6
2014-Aug-12 09:31N 34°39' E 134°44'7 0.7
2014-Aug-12 00:26N 34°43' E 134°51'3 3.7
2014-Aug-11 23:33N 34°40' E 134°48'8 7.8
2014-Aug-11 22:33N 34°34' E 134°43'1211.8
2014-Aug-11 21:33N 34°37' E 134°57'8 8.3
2014-Aug-11 20:33N 34°34' E 135°07'1414.3
2014-Aug-11 19:33N 34°21' E 135°01'1413.9
2014-Aug-11 18:33N 34°07' E 134°58'5 4.8
2014-Aug-11 17:33N 34°04' E 134°53'0 0.2
2014-Aug-11 16:33N 34°04' E 134°53'4 4.1
2014-Aug-11 15:33N 34°01' E 134°55'23513.4
2014-Aug-10 22:03N 34°41' E 139°35'815.1
2014-Aug-10 21:33N 34°43' E 139°44'1513.9
2014-Aug-10 20:31N 34°50' E 139°59'1414.1
2014-Aug-10 19:33N 34°59' E 140°12'1513.5
2014-Aug-10 18:25N 35°08' E 140°27'1511.4
2014-Aug-10 17:08N 35°21' E 140°36'712.5
2014-Aug-10 16:33N 35°28' E 140°33'2 1.9
2014-Aug-10 15:33N 35°26' E 140°34'6 2.4
2014-Aug-10 13:12N 35°22' E 140°38'4 6.7
2014-Aug-10 12:33N 35°25' E 140°34'3 2.6
2014-Aug-10 11:26N 35°27' E 140°32'8 2.0
2014-Aug-10 07:31N 35°20' E 140°37'6 6.1
2014-Aug-10 06:33N 35°25' E 140°39'6 5.0
2014-Aug-10 05:17N 35°31' E 140°42'2 2.3
2014-Aug-10 04:31N 35°29' E 140°41'3 2.8
2014-Aug-10 03:33N 35°27' E 140°40'3 2.8
2014-Aug-10 02:33N 35°24' E 140°38'2 2.5
2014-Aug-10 01:33N 35°22' E 140°38'2 2.5
2014-Aug-10 00:33N 35°24' E 140°36'4 3.3
2014-Aug-09 23:29N 35°26' E 140°33'2 1.7
2014-Aug-09 22:29N 35°25' E 140°34'1 1.6
2014-Aug-09 21:32N 35°24' E 140°36'1 1.4
2014-Aug-09 20:31N 35°23' E 140°37'2 1.6
2014-Aug-09 19:32N 35°22' E 140°39'1 0.9
2014-Aug-09 18:33N 35°22' E 140°39'6 5.9
2014-Aug-09 17:31N 35°22' E 140°32'3 2.7
2014-Aug-09 16:28N 35°22' E 140°35'2 2.6
2014-Aug-09 15:33N 35°21' E 140°38'6 4.0
2014-Aug-09 14:09N 35°22' E 140°32'0 0.6
2014-Aug-09 13:33N 35°22' E 140°32'3 2.8
2014-Aug-09 12:32N 35°22' E 140°35'2 2.4
2014-Aug-09 11:33N 35°22' E 140°38'6 6.2
2014-Aug-09 10:33N 35°25' E 140°32'2 2.2
2014-Aug-09 09:27N 35°24' E 140°35'1 1.5
2014-Aug-09 08:33N 35°24' E 140°36'8 7.7
2014-Aug-09 07:30N 35°16' E 140°36'1717.8
2014-Aug-09 06:33N 35°04' E 140°21'1716.8
2014-Aug-09 05:33N 34°53' E 140°06'1716.1
2014-Aug-09 04:31N 34°42' E 139°51'24 1.9
2014-Aug-08 15:28N 34°31' E 139°24'1 1.0
2014-Aug-08 14:25N 34°30' E 139°24'2 1.4
2014-Aug-08 13:09N 34°28' E 139°24'1 1.2
2014-Aug-08 12:30N 34°28' E 139°24'21 6.3
2014-Aug-08 09:14N 34°46' E 139°35'1217.8
2014-Aug-08 08:33N 34°57' E 139°40'1515.2
2014-Aug-08 07:33N 35°12' E 139°46'1111.4
2014-Aug-08 06:33N 35°23' E 139°42'5 4.6
2014-Aug-08 05:32N 35°27' E 139°41'0 0.0
2014-Aug-08 04:32N 35°27' E 139°41'0 0.0
2014-Aug-08 03:32N 35°27' E 139°41'0 0.0
2014-Aug-08 02:32N 35°27' E 139°41'0 0.0
2014-Aug-08 01:32N 35°27' E 139°41'0 0.0
2014-Aug-08 00:32N 35°27' E 139°41'0 0.0
2014-Aug-07 23:32N 35°27' E 139°41'0 0.0
2014-Aug-07 22:32N 35°27' E 139°41'0 0.0
2014-Aug-07 21:33N 35°27' E 139°41'8 8.1
2014-Aug-07 20:34N 35°19' E 139°43'1111.2
2014-Aug-07 19:33N 35°08' E 139°46'1313.0
2014-Aug-07 18:33N 34°57' E 139°39'1615.9
2014-Aug-07 17:33N 34°50' E 139°56'1514.4
2014-Aug-07 16:33N 34°56' E 140°12'1615.7
2014-Aug-07 15:31N 35°04' E 140°30'1613.1
2014-Aug-07 14:18N 35°13' E 140°46'1215.4
2014-Aug-07 13:31N 35°19' E 140°59'1816.2
2014-Aug-07 12:24N 35°28' E 141°18'1515.7
2014-Aug-07 11:27N 35°36' E 141°33'1515.4
2014-Aug-07 10:29N 35°43' E 141°49'1815.0
2014-Aug-07 09:17N 35°53' E 142°08'1215.5
2014-Aug-07 08:29N 35°59' E 142°21'  
Track history (hours):
 
Tides and Currents Weather Stations Pressure Air Temp Water Temp Dewpoint Dewpoint Depression Visibility Wind Speed Wind Dir Waves Ship Positions

Northern Highway

Last reported at 2014-Aug-16 13:19 UTC. Time now 2014-Aug-21 00:24 UTC.
Position N 35°28' E 141°01'.

Length 188 m; draft 8 m.

Type: Cargo ship. MMSI: 371608000.

Date/timePositionNaut miles runAvg speedWind from/ knotsBaromVisibWave heightAir tempDewpointWater temp
2014-Aug-16 13:19N 35°28' E 141°01'4817.5
2014-Aug-16 10:33N 34°58' E 140°14'1615.9
2014-Aug-16 09:33N 34°51' E 139°57'1413.8
2014-Aug-16 08:33N 34°58' E 139°42'1414.6
2014-Aug-16 07:34N 35°12' E 139°45'1110.9
2014-Aug-16 06:34N 35°22' E 139°42'5 4.8
2014-Aug-16 05:31N 35°27' E 139°41'0 0.0
2014-Aug-16 04:31N 35°27' E 139°41'0 0.0
2014-Aug-16 03:31N 35°27' E 139°41'0 0.0
2014-Aug-16 02:28N 35°27' E 139°41'0 0.0
2014-Aug-16 01:31N 35°27' E 139°41'0 0.0
2014-Aug-16 00:31N 35°27' E 139°41'0 0.0
2014-Aug-15 23:31N 35°27' E 139°41'0 0.0
2014-Aug-15 22:31N 35°27' E 139°41'0 0.2
2014-Aug-15 21:33N 35°27' E 139°41'10 9.8
2014-Aug-15 20:33N 35°18' E 139°45'1111.2
2014-Aug-15 19:33N 35°07' E 139°46'1616.1
2014-Aug-15 18:33N 34°56' E 139°31'  
2014-Aug-12 10:21N 34°30' E 134°31'1416.6
2014-Aug-12 09:31N 34°39' E 134°44'7 0.7
2014-Aug-12 00:26N 34°43' E 134°51'3 3.7
2014-Aug-11 23:33N 34°40' E 134°48'8 7.8
2014-Aug-11 22:33N 34°34' E 134°43'1211.8
2014-Aug-11 21:33N 34°37' E 134°57'8 8.3
2014-Aug-11 20:33N 34°34' E 135°07'1414.3
2014-Aug-11 19:33N 34°21' E 135°01'1413.9
2014-Aug-11 18:33N 34°07' E 134°58'5 4.8
2014-Aug-11 17:33N 34°04' E 134°53'0 0.2
2014-Aug-11 16:33N 34°04' E 134°53'4 4.1
2014-Aug-11 15:33N 34°01' E 134°55'23513.4
2014-Aug-10 22:03N 34°41' E 139°35'815.1
2014-Aug-10 21:33N 34°43' E 139°44'1513.9
2014-Aug-10 20:31N 34°50' E 139°59'1414.1
2014-Aug-10 19:33N 34°59' E 140°12'1513.5
2014-Aug-10 18:25N 35°08' E 140°27'1511.4
2014-Aug-10 17:08N 35°21' E 140°36'712.5
2014-Aug-10 16:33N 35°28' E 140°33'2 1.9
2014-Aug-10 15:33N 35°26' E 140°34'6 2.4
2014-Aug-10 13:12N 35°22' E 140°38'4 6.7
2014-Aug-10 12:33N 35°25' E 140°34'3 2.6
2014-Aug-10 11:26N 35°27' E 140°32'8 2.0
2014-Aug-10 07:31N 35°20' E 140°37'6 6.1
2014-Aug-10 06:33N 35°25' E 140°39'6 5.0
2014-Aug-10 05:17N 35°31' E 140°42'2 2.3
2014-Aug-10 04:31N 35°29' E 140°41'3 2.8
2014-Aug-10 03:33N 35°27' E 140°40'3 2.8
2014-Aug-10 02:33N 35°24' E 140°38'2 2.5
2014-Aug-10 01:33N 35°22' E 140°38'2 2.5
2014-Aug-10 00:33N 35°24' E 140°36'4 3.3
2014-Aug-09 23:29N 35°26' E 140°33'2 1.7
2014-Aug-09 22:29N 35°25' E 140°34'1 1.6
2014-Aug-09 21:32N 35°24' E 140°36'1 1.4
2014-Aug-09 20:31N 35°23' E 140°37'2 1.6
2014-Aug-09 19:32N 35°22' E 140°39'1 0.9
2014-Aug-09 18:33N 35°22' E 140°39'6 5.9
2014-Aug-09 17:31N 35°22' E 140°32'3 2.7
2014-Aug-09 16:28N 35°22' E 140°35'2 2.6
2014-Aug-09 15:33N 35°21' E 140°38'6 4.0
2014-Aug-09 14:09N 35°22' E 140°32'0 0.6
2014-Aug-09 13:33N 35°22' E 140°32'3 2.8
2014-Aug-09 12:32N 35°22' E 140°35'2 2.4
2014-Aug-09 11:33N 35°22' E 140°38'6 6.2
2014-Aug-09 10:33N 35°25' E 140°32'2 2.2
2014-Aug-09 09:27N 35°24' E 140°35'1 1.5
2014-Aug-09 08:33N 35°24' E 140°36'8 7.7
2014-Aug-09 07:30N 35°16' E 140°36'1717.8
2014-Aug-09 06:33N 35°04' E 140°21'1716.8
2014-Aug-09 05:33N 34°53' E 140°06'1716.1
2014-Aug-09 04:31N 34°42' E 139°51'24 1.9
2014-Aug-08 15:28N 34°31' E 139°24'1 1.0
2014-Aug-08 14:25N 34°30' E 139°24'2 1.4
2014-Aug-08 13:09N 34°28' E 139°24'1 1.2
2014-Aug-08 12:30N 34°28' E 139°24'21 6.3
2014-Aug-08 09:14N 34°46' E 139°35'1217.8
2014-Aug-08 08:33N 34°57' E 139°40'1515.2
2014-Aug-08 07:33N 35°12' E 139°46'1111.4
2014-Aug-08 06:33N 35°23' E 139°42'5 4.6
2014-Aug-08 05:32N 35°27' E 139°41'0 0.0
2014-Aug-08 04:32N 35°27' E 139°41'0 0.0
2014-Aug-08 03:32N 35°27' E 139°41'0 0.0
2014-Aug-08 02:32N 35°27' E 139°41'0 0.0
2014-Aug-08 01:32N 35°27' E 139°41'0 0.0
2014-Aug-08 00:32N 35°27' E 139°41'0 0.0
2014-Aug-07 23:32N 35°27' E 139°41'0 0.0
2014-Aug-07 22:32N 35°27' E 139°41'0 0.0
2014-Aug-07 21:33N 35°27' E 139°41'8 8.1
2014-Aug-07 20:34N 35°19' E 139°43'1111.2
2014-Aug-07 19:33N 35°08' E 139°46'1313.0
2014-Aug-07 18:33N 34°57' E 139°39'1615.9
2014-Aug-07 17:33N 34°50' E 139°56'1514.4
2014-Aug-07 16:33N 34°56' E 140°12'1615.7
2014-Aug-07 15:31N 35°04' E 140°30'1613.1
2014-Aug-07 14:18N 35°13' E 140°46'1215.4
2014-Aug-07 13:31N 35°19' E 140°59'1816.2
2014-Aug-07 12:24N 35°28' E 141°18'1515.7
2014-Aug-07 11:27N 35°36' E 141°33'1515.4
2014-Aug-07 10:29N 35°43' E 141°49'1815.0
2014-Aug-07 09:17N 35°53' E 142°08'1215.5
2014-Aug-07 08:29N 35°59' E 142°21'  

Dump ship's entire track history